SR20 West
Newhalem
Latest observation 08/31 18:00 PDT
| Time (PDT) | Temp °F 3430' | RH % 3430' | Min mph 3430' | Spd mph 3430' | Gust mph 3430' | Dir ° 3430' | SnoHt in 3430' |
|---|---|---|---|---|---|---|---|
| 08/31 18:00 | 70 | -7999 | 0 | 0 | 2 | 37 | -1.0 |
| 08/31 17:00 | 71 | -7999 | 0 | 1 | 6 | 22 | -0.8 |
| 08/31 16:00 | 72 | -7999 | 0 | 1 | 5 | 14 | -1.0 |
| 08/31 15:00 | 72 | -7999 | 0 | 1 | 6 | 11 | -1.6 |
| 08/31 14:00 | 71 | -7999 | 0 | 1 | 5 | 310 | -2.5 |
| 08/31 13:00 | 66 | -7999 | 0 | 4 | 11 | 213 | -1.1 |
| 08/31 12:00 | 63 | -7999 | 2 | 8 | 13 | 200 | -2.3 |
| 08/31 11:00 | 59 | -7999 | 3 | 11 | 19 | 201 | -1.6 |
| 08/31 10:00 | 54 | -7999 | 2 | 15 | 24 | 195 | -3.1 |
| 08/31 09:00 | 50 | -7999 | 8 | 21 | 29 | 203 | -1.6 |
| 08/31 08:00 | 48 | -7999 | 5 | 19 | 27 | 201 | -1.7 |
| 08/31 07:00 | 47 | -7999 | 2 | 17 | 27 | 207 | -4.6 |
| 08/31 06:00 | 47 | -7999 | 1 | 14 | 23 | 208 | -1.5 |
| 08/31 05:00 | 47 | -7999 | 0 | 11 | 21 | 206 | -5.0 |
| 08/31 04:00 | 47 | -7999 | 0 | 13 | 25 | 201 | -1.6 |
| 08/31 03:00 | 48 | -7999 | 0 | 11 | 20 | 201 | -1.8 |
| 08/31 02:00 | 48 | -7999 | 0 | 9 | 17 | 195 | -2.0 |
| 08/31 01:00 | 49 | -7999 | 0 | 7 | 14 | 198 | -4.6 |
| 08/31 00:00 | 48 | -7999 | 0 | 5 | 12 | 194 | -4.4 |
| 08/30 23:00 | 50 | -7999 | 0 | 2 | 7 | 149 | -3.9 |
| 08/30 22:00 | 50 | -7999 | 0 | 1 | 3 | 51 | -4.0 |
| 08/30 21:00 | 49 | -7999 | 0 | 0 | 4 | 44 | -5.4 |
| 08/30 20:00 | 50 | -7999 | 0 | 0 | 3 | 37 | -5.9 |
| 08/30 19:00 | 52 | -7999 | 0 | 0 | 1 | 18 | -6.2 |
| 08/30 18:00 | 52 | -7999 | 0 | 0 | 1 | 5 | -6.0 |
| 08/30 17:00 | 52 | -7999 | 0 | 0 | 3 | 2 | -1.5 |
| 08/30 16:00 | 52 | -7999 | 0 | 0 | 1 | 8 | -0.2 |
| 08/30 15:00 | 53 | -7999 | 0 | 0 | 1 | 5 | -0.7 |
| 08/30 14:00 | 52 | -7999 | 0 | 0 | 1 | 359 | -1.0 |
| 08/30 13:00 | 50 | -7999 | 0 | 0 | 1 | 349 | -0.5 |
| 08/30 12:00 | 48 | -7999 | 0 | 0 | 2 | 8 | -0.1 |
| 08/30 11:00 | 47 | -7999 | 0 | 0 | 3 | 25 | -0.0 |
| 08/30 10:00 | 46 | -7999 | 0 | 0 | 6 | 13 | 0.4 |
| 08/30 09:00 | 45 | -7999 | 0 | 0 | 4 | 28 | 0.5 |
| 08/30 08:00 | 45 | -7999 | 0 | 0 | 2 | 58 | 0.6 |
| 08/30 07:00 | 45 | -7999 | 0 | 0 | 4 | 20 | 0.7 |
| 08/30 06:00 | 45 | -7999 | 0 | 0 | 1 | 15 | 0.8 |
| 08/30 05:00 | 45 | -7999 | 0 | 0 | 6 | 50 | 1.1 |
| 08/30 04:00 | 45 | -7999 | 0 | 0 | 3 | 32 | 1.2 |
| 08/30 03:00 | 46 | -7999 | 0 | 0 | 5 | 16 | 1.1 |
| 08/30 02:00 | 46 | -7999 | 0 | 0 | 4 | 16 | 1.2 |
| 08/30 01:00 | 46 | -7999 | 0 | 0 | 3 | 9 | 1.1 |
| 08/30 00:00 | 46 | -7999 | 0 | 0 | 0 | 19 | 1.2 |
| 08/29 23:00 | 47 | -7999 | 0 | 0 | 4 | 26 | 1.3 |
| 08/29 22:00 | 47 | -7999 | 0 | 0 | 6 | 22 | 1.2 |
| 08/29 21:00 | 47 | -7999 | 0 | 1 | 8 | 48 | 1.3 |
| 08/29 20:00 | 48 | -7999 | 0 | 1 | 7 | 43 | 1.4 |
| 08/29 19:00 | 48 | -7999 | 0 | 0 | 7 | 61 | 1.1 |
| 08/29 18:00 | 49 | -7999 | 0 | 0 | 2 | 104 | 1.2 |
| 08/29 17:00 | 48 | -7999 | 0 | 0 | 5 | 272 | 0.8 |
| 08/29 16:00 | 48 | -7999 | 0 | 0 | 2 | 279 | 1.2 |
| 08/29 15:00 | 48 | -7999 | 0 | 0 | 4 | 246 | 0.6 |
| 08/29 14:00 | 47 | -7999 | 0 | 1 | 6 | 193 | 1.0 |
| 08/29 13:00 | 47 | -7999 | 0 | 0 | 5 | 288 | 0.7 |
| 08/29 12:00 | 49 | -7999 | 0 | 1 | 5 | 344 | -1.5 |
| 08/29 11:00 | 48 | -7999 | 0 | 1 | 6 | 11 | 0.5 |
| 08/29 10:00 | 47 | -7999 | 0 | 0 | 6 | 342 | 1.1 |
| 08/29 09:00 | 47 | -7999 | 0 | 0 | 2 | 294 | 0.4 |
| 08/29 08:00 | 48 | -7999 | 0 | 1 | 6 | 12 | 1.1 |
| 08/29 07:00 | 47 | -7999 | 0 | 0 | 5 | 22 | 0.5 |
| 08/29 06:00 | 47 | -7999 | 0 | 1 | 9 | 20 | 0.5 |
| 08/29 05:00 | 48 | -7999 | 0 | 0 | 3 | 313 | 0.6 |
| 08/29 04:00 | 48 | -7999 | 0 | 0 | 5 | 239 | 0.6 |
| 08/29 03:00 | 48 | -7999 | 0 | 0 | 4 | 316 | -0.4 |
| 08/29 02:00 | 48 | -7999 | 0 | 2 | 9 | 19 | -2.7 |
| 08/29 01:00 | 50 | -7999 | 0 | 0 | 2 | 19 | -2.3 |
| 08/29 00:00 | 51 | -7999 | 0 | 0 | 6 | 35 | -1.5 |
| 08/28 23:00 | 52 | -7999 | 0 | 0 | 4 | 5 | -1.5 |
| 08/28 22:00 | 53 | -7999 | 0 | 0 | 4 | 11 | -2.1 |
| 08/28 21:00 | 54 | -7999 | 0 | 1 | 6 | 325 | -2.6 |
| 08/28 20:00 | 55 | -7999 | 0 | 1 | 9 | 291 | -2.4 |
| 08/28 19:00 | 57 | -7999 | 0 | 1 | 4 | 162 | -2.1 |
| 08/28 18:00 | 61 | -7999 | 0 | 1 | 4 | 177 | -1.3 |
| 08/28 17:00 | 63 | -7999 | 0 | 1 | 7 | 294 | -1.4 |
| 08/28 16:00 | 63 | -7999 | 0 | 2 | 9 | 359 | -1.2 |
| 08/28 15:00 | 64 | -7999 | 0 | 1 | 8 | 349 | -0.8 |
| 08/28 14:00 | 61 | -7999 | 0 | 1 | 4 | 343 | -1.0 |
| 08/28 13:00 | 59 | -7999 | 0 | 0 | 7 | 355 | -0.2 |
| 08/28 12:00 | 57 | -7999 | 0 | 0 | 3 | 345 | -1.2 |
| 08/28 11:00 | 57 | -7999 | 0 | 0 | 3 | 5 | -1.8 |
| 08/28 10:00 | 52 | -7999 | 0 | 0 | 3 | 35 | -3.5 |
| 08/28 09:00 | 50 | -7999 | 0 | 0 | 7 | 38 | 211.5 |
| 08/28 08:00 | 50 | -7999 | 0 | 0 | 2 | 38 | 211.5 |
| 08/28 07:00 | 49 | -7999 | 0 | 0 | 3 | 49 | 211.5 |
| 08/28 06:00 | 49 | -7999 | 0 | 0 | 1 | 49 | 211.5 |
| 08/28 05:00 | 50 | -7999 | 0 | 0 | 2 | 43 | 211.5 |
| 08/28 04:00 | 50 | -7999 | 0 | 0 | 1 | 52 | 211.5 |
| 08/28 03:00 | 51 | -7999 | 0 | 0 | 1 | 3 | 211.5 |
| 08/28 02:00 | 51 | -7999 | 0 | 0 | 4 | 42 | 211.5 |
| 08/28 01:00 | 52 | -7999 | 0 | 0 | 4 | 42 | 211.5 |
| 08/28 00:00 | 52 | -7999 | 0 | 0 | 4 | 29 | 211.5 |
| 08/27 23:00 | 52 | -7999 | 0 | 0 | 1 | 333 | 211.5 |
| 08/27 22:00 | 54 | -7999 | 0 | 0 | 3 | 25 | -2.6 |
| 08/27 21:00 | 54 | -7999 | 0 | 0 | 1 | 302 | -2.3 |
| 08/27 20:00 | 55 | -7999 | 0 | 0 | 3 | 111 | -2.2 |
| 08/27 19:00 | 57 | -7999 | 0 | 0 | 3 | 96 | -2.3 |
| 08/27 18:00 | 57 | -7999 | 0 | 0 | 3 | 112 | -2.7 |
| 08/27 17:00 | 58 | -7999 | 0 | 0 | 3 | 294 | -2.6 |
| 08/27 16:00 | 60 | -7999 | 0 | 1 | 4 | 293 | -0.9 |
| 08/27 15:00 | 57 | -7999 | 0 | 2 | 9 | 114 | -2.9 |
| 08/27 14:00 | 60 | -7999 | 0 | 1 | 7 | 115 | -2.6 |
| 08/27 13:00 | 61 | -7999 | 0 | 1 | 5 | 303 | -3.4 |
| 08/27 12:00 | 65 | -7999 | 0 | 1 | 7 | 330 | -1.0 |
| 08/27 11:00 | 59 | -7999 | 0 | 0 | 1 | 353 | -1.0 |
| 08/27 10:00 | 56 | -7999 | 0 | 0 | 4 | 18 | -2.4 |
| 08/27 09:00 | 55 | -7999 | 0 | 1 | 7 | 39 | -3.1 |
| 08/27 08:00 | 54 | -7999 | 0 | 1 | 7 | 53 | -2.9 |
| 08/27 07:00 | 53 | -7999 | 0 | 1 | 7 | 55 | -2.6 |
| 08/27 06:00 | 55 | -7999 | 0 | 0 | 5 | 33 | -2.8 |
| 08/27 05:00 | 55 | -7999 | 0 | 0 | 5 | 36 | -3.4 |
| 08/27 04:00 | 56 | -7999 | 0 | 0 | 3 | 40 | 211.5 |
| 08/27 03:00 | 57 | -7999 | 0 | 1 | 5 | 56 | 211.5 |
| 08/27 02:00 | 59 | -7999 | 0 | 1 | 6 | 54 | 211.5 |
| 08/27 01:00 | 60 | -7999 | 0 | 1 | 6 | 38 | -2.4 |
| 08/27 00:00 | 60 | -7999 | 0 | 1 | 8 | 48 | 211.5 |
| 08/26 23:00 | 62 | -7999 | 0 | 0 | 6 | 25 | 211.5 |
| 08/26 22:00 | 63 | -7999 | 0 | 0 | 6 | 53 | 211.5 |
| 08/26 21:00 | 62 | -7999 | 0 | 0 | 6 | 60 | -2.3 |
| 08/26 20:00 | 63 | -7999 | 0 | 0 | 4 | 36 | 211.5 |
| 08/26 19:00 | 66 | -7999 | 0 | 1 | 5 | 128 | 211.5 |
| 08/26 18:00 | 69 | -7999 | 0 | 2 | 5 | 133 | -1.8 |
| 08/26 17:00 | 70 | -7999 | 0 | 1 | 13 | 21 | -1.4 |
| 08/26 16:00 | 71 | -7999 | 0 | 2 | 9 | 8 | 0.2 |
| 08/26 15:00 | 71 | -7999 | 0 | 1 | 7 | 339 | 0.5 |
| 08/26 14:00 | 68 | -7999 | 0 | 0 | 9 | 7 | -1.1 |
| 08/26 13:00 | 66 | -7999 | 0 | 1 | 10 | 41 | -0.7 |
| 08/26 12:00 | 65 | -7999 | 0 | 1 | 6 | 44 | -3.1 |
| 08/26 11:00 | 66 | -7999 | 0 | 4 | 10 | 221 | -0.9 |
| 08/26 10:00 | 63 | -7999 | 0 | 7 | 12 | 201 | -2.3 |
| 08/26 09:00 | 61 | -7999 | 1 | 5 | 9 | 197 | -2.5 |
| 08/26 08:00 | 58 | -7999 | 0 | 2 | 6 | 169 | -3.2 |
| 08/26 07:00 | 58 | -7999 | 0 | 0 | 3 | 67 | 211.5 |
| 08/26 06:00 | 57 | -7999 | 0 | 0 | 4 | 49 | 211.5 |
| 08/26 05:00 | 56 | -7999 | 0 | 1 | 5 | 58 | -2.6 |
| 08/26 04:00 | 60 | -7999 | 0 | 3 | 8 | 53 | 211.5 |
| 08/26 03:00 | 61 | -7999 | 0 | 4 | 9 | 52 | 104.6 |
| 08/26 02:00 | 62 | -7999 | 0 | 3 | 7 | 45 | 105.2 |
| 08/26 01:00 | 64 | -7999 | 0 | 1 | 5 | 70 | -2.3 |
| 08/26 00:00 | 67 | -7999 | 0 | 0 | 5 | 67 | -0.9 |
| 08/25 23:00 | 67 | -7999 | 0 | 0 | 6 | 70 | -1.8 |
| 08/25 22:00 | 68 | -7999 | 0 | 0 | 3 | 100 | -0.5 |
| 08/25 21:00 | 70 | -7999 | 0 | 1 | 7 | 260 | 211.5 |
| 08/25 20:00 | 72 | -7999 | 0 | 1 | 6 | 133 | 211.5 |
| 08/25 19:00 | 74 | -7999 | 0 | 1 | 7 | 210 | 211.5 |
| 08/25 18:00 | 78 | -7999 | 0 | 2 | 10 | 355 | -1.3 |
| 08/25 17:00 | 80 | -7999 | 0 | 2 | 9 | 28 | -0.7 |
| 08/25 16:00 | 86 | -7999 | 0 | 0 | 3 | 322 | -0.8 |
| 08/25 15:00 | 84 | -7999 | 0 | 0 | 0 | 263 | -0.8 |
| 08/25 14:00 | 83 | -7999 | 0 | 0 | 0 | 275 | -0.8 |
| 08/25 13:00 | 81 | -7999 | 0 | 1 | 7 | 224 | -1.5 |
| 08/25 12:00 | 77 | -7999 | 0 | 7 | 13 | 202 | -0.4 |
| 08/25 11:00 | 74 | -7999 | 3 | 9 | 17 | 198 | -0.7 |
| 08/25 10:00 | 69 | -7999 | 3 | 15 | 24 | 200 | -0.3 |
| 08/25 09:00 | 66 | -7999 | 6 | 19 | 25 | 197 | -0.5 |
| 08/25 08:00 | 65 | -7999 | 11 | 18 | 25 | 194 | -1.4 |
| 08/25 07:00 | 64 | -7999 | 8 | 18 | 26 | 193 | -3.3 |
| 08/25 06:00 | 65 | -7999 | 11 | 19 | 25 | 195 | -2.6 |
| 08/25 05:00 | 66 | -7999 | 10 | 17 | 23 | 196 | -2.7 |
| 08/25 04:00 | 65 | -7999 | 8 | 16 | 25 | 198 | -3.2 |
| 08/25 03:00 | 66 | -7999 | 5 | 15 | 22 | 196 | -3.0 |
| 08/25 02:00 | 66 | -7999 | 5 | 12 | 20 | 202 | -4.6 |
| 08/25 01:00 | 66 | -7999 | 3 | 10 | 18 | 196 | -3.5 |
| 08/25 00:00 | 67 | -7999 | 0 | 4 | 8 | 180 | -2.1 |
| 08/24 23:00 | 69 | -7999 | 0 | 0 | 2 | 137 | 211.5 |
| 08/24 22:00 | 67 | -7999 | 0 | 1 | 4 | 44 | 211.5 |
| 08/24 21:00 | 68 | -7999 | 0 | 1 | 7 | 53 | 211.5 |
| 08/24 20:00 | 68 | -7999 | 3 | 5 | 8 | 46 | 211.5 |
| 08/24 19:00 | 69 | -7999 | 0 | 2 | 7 | 42 | 211.5 |

